sensor_id;sensor_type;location;lat;lon;timestamp;P1;durP1;ratioP1;P2;durP2;ratioP2
11986;SDS011;6053;51.382;6.768;2022-07-05T00:02:01;0.17;;;0.17;;
11986;SDS011;6053;51.382;6.768;2022-07-05T00:04:29;1.90;;;0.60;;
11986;SDS011;6053;51.382;6.768;2022-07-05T00:06:58;0.63;;;0.50;;
11986;SDS011;6053;51.382;6.768;2022-07-05T00:09:45;0.20;;;0.20;;
11986;SDS011;6053;51.382;6.768;2022-07-05T00:12:14;0.27;;;0.27;;
11986;SDS011;6053;51.382;6.768;2022-07-05T00:14:46;0.93;;;0.47;;
11986;SDS011;6053;51.382;6.768;2022-07-05T00:17:15;0.40;;;0.30;;
11986;SDS011;6053;51.382;6.768;2022-07-05T00:19:44;0.47;;;0.43;;
11986;SDS011;6053;51.382;6.768;2022-07-05T00:22:13;0.30;;;0.30;;
11986;SDS011;6053;51.382;6.768;2022-07-05T00:24:41;0.30;;;0.30;;
11986;SDS011;6053;51.382;6.768;2022-07-05T00:27:12;0.30;;;0.30;;
11986;SDS011;6053;51.382;6.768;2022-07-05T00:29:40;0.40;;;0.40;;
11986;SDS011;6053;51.382;6.768;2022-07-05T00:32:09;0.37;;;0.33;;
11986;SDS011;6053;51.382;6.768;2022-07-05T00:34:37;1.10;;;0.28;;
11986;SDS011;6053;51.382;6.768;2022-07-05T00:37:06;0.70;;;0.70;;
11986;SDS011;6053;51.382;6.768;2022-07-05T00:39:34;0.30;;;0.30;;
11986;SDS011;6053;51.382;6.768;2022-07-05T00:42:03;0.20;;;0.20;;
11986;SDS011;6053;51.382;6.768;2022-07-05T00:44:33;0.10;;;0.10;;
11986;SDS011;6053;51.382;6.768;2022-07-05T00:47:04;0.38;;;0.38;;
11986;SDS011;6053;51.382;6.768;2022-07-05T00:49:34;0.50;;;0.43;;
11986;SDS011;6053;51.382;6.768;2022-07-05T00:52:03;0.20;;;0.20;;
11986;SDS011;6053;51.382;6.768;2022-07-05T00:54:48;0.20;;;0.20;;
11986;SDS011;6053;51.382;6.768;2022-07-05T00:57:17;0.40;;;0.20;;
11986;SDS011;6053;51.382;6.768;2022-07-05T00:59:49;1.10;;;0.20;;
11986;SDS011;6053;51.382;6.768;2022-07-05T01:02:18;0.20;;;0.20;;
11986;SDS011;6053;51.382;6.768;2022-07-05T01:04:49;0.47;;;0.43;;
11986;SDS011;6053;51.382;6.768;2022-07-05T01:07:18;0.30;;;0.30;;
11986;SDS011;6053;51.382;6.768;2022-07-05T01:09:50;0.30;;;0.30;;
11986;SDS011;6053;51.382;6.768;2022-07-05T01:12:18;0.30;;;0.30;;
11986;SDS011;6053;51.382;6.768;2022-07-05T01:14:46;0.32;;;0.32;;
11986;SDS011;6053;51.382;6.768;2022-07-05T01:17:18;0.30;;;0.30;;
11986;SDS011;6053;51.382;6.768;2022-07-05T01:19:46;0.22;;;0.22;;
11986;SDS011;6053;51.382;6.768;2022-07-05T01:22:16;0.20;;;0.20;;
11986;SDS011;6053;51.382;6.768;2022-07-05T01:24:48;0.30;;;0.30;;
11986;SDS011;6053;51.382;6.768;2022-07-05T01:27:17;0.30;;;0.30;;
11986;SDS011;6053;51.382;6.768;2022-07-05T01:29:47;0.25;;;0.25;;
11986;SDS011;6053;51.382;6.768;2022-07-05T01:32:15;0.30;;;0.30;;
11986;SDS011;6053;51.382;6.768;2022-07-05T01:34:43;0.40;;;0.30;;
11986;SDS011;6053;51.382;6.768;2022-07-05T01:37:13;0.30;;;0.30;;
11986;SDS011;6053;51.382;6.768;2022-07-05T01:39:41;0.30;;;0.30;;
11986;SDS011;6053;51.382;6.768;2022-07-05T01:42:12;0.20;;;0.20;;
11986;SDS011;6053;51.382;6.768;2022-07-05T01:44:40;0.30;;;0.30;;
11986;SDS011;6053;51.382;6.768;2022-07-05T01:47:09;0.50;;;0.50;;
11986;SDS011;6053;51.382;6.768;2022-07-05T01:49:39;0.30;;;0.30;;
11986;SDS011;6053;51.382;6.768;2022-07-05T01:52:13;1.27;;;0.38;;
11986;SDS011;6053;51.382;6.768;2022-07-05T01:54:43;0.20;;;0.20;;
11986;SDS011;6053;51.382;6.768;2022-07-05T01:57:13;0.40;;;0.40;;
11986;SDS011;6053;51.382;6.768;2022-07-05T01:59:42;0.20;;;0.20;;
11986;SDS011;6053;51.382;6.768;2022-07-05T02:02:10;0.40;;;0.35;;
11986;SDS011;6053;51.382;6.768;2022-07-05T02:04:45;0.30;;;0.30;;
11986;SDS011;6053;51.382;6.768;2022-07-05T02:07:14;0.30;;;0.30;;
11986;SDS011;6053;51.382;6.768;2022-07-05T02:09:42;0.63;;;0.40;;
11986;SDS011;6053;51.382;6.768;2022-07-05T02:12:11;0.45;;;0.43;;
11986;SDS011;6053;51.382;6.768;2022-07-05T02:14:40;0.27;;;0.27;;
11986;SDS011;6053;51.382;6.768;2022-07-05T02:17:09;0.80;;;0.50;;
11986;SDS011;6053;51.382;6.768;2022-07-05T02:19:37;0.30;;;0.30;;
11986;SDS011;6053;51.382;6.768;2022-07-05T02:22:06;0.30;;;0.30;;
11986;SDS011;6053;51.382;6.768;2022-07-05T02:24:35;0.47;;;0.30;;
11986;SDS011;6053;51.382;6.768;2022-07-05T02:27:03;0.40;;;0.40;;
11986;SDS011;6053;51.382;6.768;2022-07-05T02:29:32;0.90;;;0.45;;
11986;SDS011;6053;51.382;6.768;2022-07-05T02:32:02;0.57;;;0.57;;
11986;SDS011;6053;51.382;6.768;2022-07-05T02:34:31;0.20;;;0.20;;
11986;SDS011;6053;51.382;6.768;2022-07-05T02:36:59;0.30;;;0.30;;
11986;SDS011;6053;51.382;6.768;2022-07-05T02:39:27;0.40;;;0.40;;
11986;SDS011;6053;51.382;6.768;2022-07-05T02:41:56;0.40;;;0.40;;
11986;SDS011;6053;51.382;6.768;2022-07-05T02:44:24;0.40;;;0.40;;
11986;SDS011;6053;51.382;6.768;2022-07-05T02:46:52;0.80;;;0.40;;
11986;SDS011;6053;51.382;6.768;2022-07-05T02:49:22;0.30;;;0.30;;
11986;SDS011;6053;51.382;6.768;2022-07-05T02:51:50;1.00;;;0.35;;
11986;SDS011;6053;51.382;6.768;2022-07-05T02:54:19;0.30;;;0.30;;
11986;SDS011;6053;51.382;6.768;2022-07-05T02:56:47;0.30;;;0.30;;
11986;SDS011;6053;51.382;6.768;2022-07-05T02:59:15;0.30;;;0.30;;
11986;SDS011;6053;51.382;6.768;2022-07-05T03:01:43;0.70;;;0.40;;
11986;SDS011;6053;51.382;6.768;2022-07-05T03:04:12;0.40;;;0.40;;
11986;SDS011;6053;51.382;6.768;2022-07-05T03:06:42;0.43;;;0.38;;
11986;SDS011;6053;51.382;6.768;2022-07-05T03:09:17;0.55;;;0.40;;
11986;SDS011;6053;51.382;6.768;2022-07-05T03:11:45;0.43;;;0.43;;
11986;SDS011;6053;51.382;6.768;2022-07-05T03:14:13;0.45;;;0.30;;
11986;SDS011;6053;51.382;6.768;2022-07-05T03:16:41;0.70;;;0.40;;
11986;SDS011;6053;51.382;6.768;2022-07-05T03:19:11;0.30;;;0.30;;
11986;SDS011;6053;51.382;6.768;2022-07-05T03:21:39;0.37;;;0.37;;
11986;SDS011;6053;51.382;6.768;2022-07-05T03:24:10;0.40;;;0.40;;
11986;SDS011;6053;51.382;6.768;2022-07-05T03:26:38;0.68;;;0.50;;
11986;SDS011;6053;51.382;6.768;2022-07-05T03:29:06;0.50;;;0.50;;
11986;SDS011;6053;51.382;6.768;2022-07-05T03:31:35;0.40;;;0.40;;
11986;SDS011;6053;51.382;6.768;2022-07-05T03:34:04;0.38;;;0.38;;
11986;SDS011;6053;51.382;6.768;2022-07-05T03:36:32;0.50;;;0.50;;
11986;SDS011;6053;51.382;6.768;2022-07-05T03:39:02;0.30;;;0.30;;
11986;SDS011;6053;51.382;6.768;2022-07-05T03:41:30;0.40;;;0.40;;
11986;SDS011;6053;51.382;6.768;2022-07-05T03:43:58;1.10;;;0.40;;
11986;SDS011;6053;51.382;6.768;2022-07-05T03:46:27;0.40;;;0.40;;
11986;SDS011;6053;51.382;6.768;2022-07-05T03:48:55;0.35;;;0.35;;
11986;SDS011;6053;51.382;6.768;2022-07-05T03:51:23;0.70;;;0.60;;
11986;SDS011;6053;51.382;6.768;2022-07-05T03:53:52;0.50;;;0.50;;
11986;SDS011;6053;51.382;6.768;2022-07-05T03:56:22;0.47;;;0.47;;
11986;SDS011;6053;51.382;6.768;2022-07-05T03:58:51;0.40;;;0.40;;
11986;SDS011;6053;51.382;6.768;2022-07-05T04:01:19;0.60;;;0.60;;
11986;SDS011;6053;51.382;6.768;2022-07-05T04:03:48;0.50;;;0.50;;
11986;SDS011;6053;51.382;6.768;2022-07-05T04:06:16;0.50;;;0.50;;
11986;SDS011;6053;51.382;6.768;2022-07-05T04:08:45;0.40;;;0.40;;
11986;SDS011;6053;51.382;6.768;2022-07-05T04:11:13;0.50;;;0.50;;
11986;SDS011;6053;51.382;6.768;2022-07-05T04:13:43;0.60;;;0.60;;
11986;SDS011;6053;51.382;6.768;2022-07-05T04:16:12;0.57;;;0.57;;
11986;SDS011;6053;51.382;6.768;2022-07-05T04:18:40;0.50;;;0.50;;
11986;SDS011;6053;51.382;6.768;2022-07-05T04:21:09;2.00;;;1.30;;
11986;SDS011;6053;51.382;6.768;2022-07-05T04:23:37;0.60;;;0.60;;
11986;SDS011;6053;51.382;6.768;2022-07-05T04:26:06;0.60;;;0.60;;
11986;SDS011;6053;51.382;6.768;2022-07-05T04:28:35;0.80;;;0.63;;
11986;SDS011;6053;51.382;6.768;2022-07-05T04:31:05;0.70;;;0.70;;
11986;SDS011;6053;51.382;6.768;2022-07-05T04:33:33;0.50;;;0.50;;
11986;SDS011;6053;51.382;6.768;2022-07-05T04:36:02;0.50;;;0.50;;
11986;SDS011;6053;51.382;6.768;2022-07-05T04:38:31;0.63;;;0.63;;
11986;SDS011;6053;51.382;6.768;2022-07-05T04:40:59;0.63;;;0.63;;
11986;SDS011;6053;51.382;6.768;2022-07-05T04:43:27;0.70;;;0.70;;
11986;SDS011;6053;51.382;6.768;2022-07-05T04:45:56;0.60;;;0.60;;
11986;SDS011;6053;51.382;6.768;2022-07-05T04:48:25;0.77;;;0.77;;
11986;SDS011;6053;51.382;6.768;2022-07-05T04:50:54;0.60;;;0.57;;
11986;SDS011;6053;51.382;6.768;2022-07-05T04:53:22;0.57;;;0.57;;
11986;SDS011;6053;51.382;6.768;2022-07-05T04:55:50;0.60;;;0.60;;
11986;SDS011;6053;51.382;6.768;2022-07-05T04:58:19;0.73;;;0.73;;
11986;SDS011;6053;51.382;6.768;2022-07-05T05:00:47;0.90;;;0.60;;
11986;SDS011;6053;51.382;6.768;2022-07-05T05:03:15;0.57;;;0.57;;
11986;SDS011;6053;51.382;6.768;2022-07-05T05:05:46;1.25;;;0.93;;
11986;SDS011;6053;51.382;6.768;2022-07-05T05:08:15;1.30;;;1.00;;
11986;SDS011;6053;51.382;6.768;2022-07-05T05:10:43;1.13;;;0.90;;
11986;SDS011;6053;51.382;6.768;2022-07-05T05:13:11;0.50;;;0.50;;
11986;SDS011;6053;51.382;6.768;2022-07-05T05:15:40;0.60;;;0.60;;
11986;SDS011;6053;51.382;6.768;2022-07-05T05:18:08;0.60;;;0.60;;
11986;SDS011;6053;51.382;6.768;2022-07-05T05:20:36;0.80;;;0.80;;
11986;SDS011;6053;51.382;6.768;2022-07-05T05:23:07;0.70;;;0.70;;
11986;SDS011;6053;51.382;6.768;2022-07-05T05:25:35;2.70;;;1.30;;
11986;SDS011;6053;51.382;6.768;2022-07-05T05:28:04;0.60;;;0.60;;
11986;SDS011;6053;51.382;6.768;2022-07-05T05:30:32;0.70;;;0.70;;
11986;SDS011;6053;51.382;6.768;2022-07-05T05:33:00;0.60;;;0.60;;
11986;SDS011;6053;51.382;6.768;2022-07-05T05:35:29;0.73;;;0.73;;
11986;SDS011;6053;51.382;6.768;2022-07-05T05:37:57;0.60;;;0.60;;
11986;SDS011;6053;51.382;6.768;2022-07-05T05:40:27;1.50;;;1.17;;
11986;SDS011;6053;51.382;6.768;2022-07-05T05:42:55;1.23;;;1.02;;
11986;SDS011;6053;51.382;6.768;2022-07-05T05:45:24;1.35;;;0.80;;
11986;SDS011;6053;51.382;6.768;2022-07-05T05:47:53;0.70;;;0.70;;
11986;SDS011;6053;51.382;6.768;2022-07-05T05:50:23;0.63;;;0.63;;
11986;SDS011;6053;51.382;6.768;2022-07-05T05:52:54;0.70;;;0.70;;
11986;SDS011;6053;51.382;6.768;2022-07-05T05:55:23;1.27;;;1.10;;
11986;SDS011;6053;51.382;6.768;2022-07-05T05:57:55;2.10;;;1.30;;
11986;SDS011;6053;51.382;6.768;2022-07-05T06:00:24;1.67;;;1.13;;
11986;SDS011;6053;51.382;6.768;2022-07-05T06:02:53;1.75;;;1.13;;
11986;SDS011;6053;51.382;6.768;2022-07-05T06:05:21;1.07;;;0.97;;
11986;SDS011;6053;51.382;6.768;2022-07-05T06:07:50;1.50;;;0.65;;
11986;SDS011;6053;51.382;6.768;2022-07-05T06:10:20;2.40;;;1.17;;
11986;SDS011;6053;51.382;6.768;2022-07-05T06:12:51;1.33;;;1.00;;
11986;SDS011;6053;51.382;6.768;2022-07-05T06:15:22;0.93;;;0.90;;
11986;SDS011;6053;51.382;6.768;2022-07-05T06:17:50;2.50;;;1.30;;
11986;SDS011;6053;51.382;6.768;2022-07-05T06:20:19;3.30;;;1.58;;
11986;SDS011;6053;51.382;6.768;2022-07-05T06:22:50;2.27;;;1.90;;
11986;SDS011;6053;51.382;6.768;2022-07-05T06:25:19;3.08;;;1.48;;
11986;SDS011;6053;51.382;6.768;2022-07-05T06:27:50;1.23;;;1.00;;
11986;SDS011;6053;51.382;6.768;2022-07-05T06:30:22;5.13;;;1.80;;
11986;SDS011;6053;51.382;6.768;2022-07-05T06:32:52;1.27;;;0.90;;
11986;SDS011;6053;51.382;6.768;2022-07-05T06:35:21;2.20;;;1.20;;
11986;SDS011;6053;51.382;6.768;2022-07-05T06:37:51;3.85;;;1.77;;
11986;SDS011;6053;51.382;6.768;2022-07-05T06:40:20;5.77;;;2.00;;
11986;SDS011;6053;51.382;6.768;2022-07-05T06:42:50;3.83;;;1.97;;
11986;SDS011;6053;51.382;6.768;2022-07-05T06:45:21;5.03;;;2.05;;
11986;SDS011;6053;51.382;6.768;2022-07-05T06:47:54;1.88;;;1.02;;
11986;SDS011;6053;51.382;6.768;2022-07-05T06:50:23;1.65;;;1.13;;
11986;SDS011;6053;51.382;6.768;2022-07-05T06:52:52;2.90;;;1.80;;
11986;SDS011;6053;51.382;6.768;2022-07-05T06:55:21;3.38;;;1.77;;
11986;SDS011;6053;51.382;6.768;2022-07-05T06:57:56;2.47;;;1.60;;
11986;SDS011;6053;51.382;6.768;2022-07-05T07:00:43;2.15;;;1.35;;
11986;SDS011;6053;51.382;6.768;2022-07-05T07:03:32;1.83;;;1.13;;
11986;SDS011;6053;51.382;6.768;2022-07-05T07:06:21;1.02;;;0.98;;
11986;SDS011;6053;51.382;6.768;2022-07-05T07:08:51;3.15;;;1.30;;
11986;SDS011;6053;51.382;6.768;2022-07-05T07:11:36;0.75;;;0.75;;
11986;SDS011;6053;51.382;6.768;2022-07-05T07:14:04;2.80;;;1.30;;
11986;SDS011;6053;51.382;6.768;2022-07-05T07:16:35;1.50;;;1.20;;
11986;SDS011;6053;51.382;6.768;2022-07-05T07:19:03;1.52;;;1.15;;
11986;SDS011;6053;51.382;6.768;2022-07-05T07:21:38;1.33;;;1.17;;
11986;SDS011;6053;51.382;6.768;2022-07-05T07:24:08;1.40;;;0.80;;
11986;SDS011;6053;51.382;6.768;2022-07-05T07:26:38;0.95;;;0.80;;
11986;SDS011;6053;51.382;6.768;2022-07-05T07:29:24;0.60;;;0.60;;
11986;SDS011;6053;51.382;6.768;2022-07-05T07:31:54;0.50;;;0.50;;
11986;SDS011;6053;51.382;6.768;2022-07-05T07:34:22;0.95;;;0.95;;
11986;SDS011;6053;51.382;6.768;2022-07-05T07:36:51;1.38;;;0.90;;
11986;SDS011;6053;51.382;6.768;2022-07-05T07:39:20;1.83;;;0.93;;
11986;SDS011;6053;51.382;6.768;2022-07-05T07:41:48;1.60;;;1.00;;
11986;SDS011;6053;51.382;6.768;2022-07-05T07:44:17;0.73;;;0.70;;
11986;SDS011;6053;51.382;6.768;2022-07-05T07:46:46;0.60;;;0.60;;
11986;SDS011;6053;51.382;6.768;2022-07-05T07:49:16;1.20;;;0.60;;
11986;SDS011;6053;51.382;6.768;2022-07-05T07:51:45;4.10;;;0.60;;
11986;SDS011;6053;51.382;6.768;2022-07-05T07:54:14;0.68;;;0.38;;
11986;SDS011;6053;51.382;6.768;2022-07-05T07:56:43;0.77;;;0.40;;
11986;SDS011;6053;51.382;6.768;2022-07-05T07:59:11;0.35;;;0.35;;
11986;SDS011;6053;51.382;6.768;2022-07-05T08:01:39;0.60;;;0.60;;
11986;SDS011;6053;51.382;6.768;2022-07-05T08:04:11;0.50;;;0.40;;
11986;SDS011;6053;51.382;6.768;2022-07-05T08:06:43;0.68;;;0.50;;
11986;SDS011;6053;51.382;6.768;2022-07-05T08:09:12;0.43;;;0.43;;
11986;SDS011;6053;51.382;6.768;2022-07-05T08:11:43;0.30;;;0.30;;
11986;SDS011;6053;51.382;6.768;2022-07-05T08:14:13;0.40;;;0.40;;
11986;SDS011;6053;51.382;6.768;2022-07-05T08:16:42;0.63;;;0.60;;
11986;SDS011;6053;51.382;6.768;2022-07-05T08:19:17;1.20;;;0.50;;
11986;SDS011;6053;51.382;6.768;2022-07-05T08:22:05;0.50;;;0.30;;
11986;SDS011;6053;51.382;6.768;2022-07-05T08:24:35;0.93;;;0.50;;
11986;SDS011;6053;51.382;6.768;2022-07-05T08:27:06;2.03;;;0.65;;
11986;SDS011;6053;51.382;6.768;2022-07-05T08:29:35;0.30;;;0.30;;
11986;SDS011;6053;51.382;6.768;2022-07-05T08:32:04;0.50;;;0.40;;
11986;SDS011;6053;51.382;6.768;2022-07-05T08:34:34;1.63;;;0.60;;
11986;SDS011;6053;51.382;6.768;2022-07-05T08:37:05;0.55;;;0.40;;
11986;SDS011;6053;51.382;6.768;2022-07-05T08:39:40;1.00;;;0.60;;
11986;SDS011;6053;51.382;6.768;2022-07-05T08:42:09;1.17;;;0.68;;
11986;SDS011;6053;51.382;6.768;2022-07-05T08:44:38;1.50;;;0.73;;
11986;SDS011;6053;51.382;6.768;2022-07-05T08:47:10;2.03;;;0.68;;
11986;SDS011;6053;51.382;6.768;2022-07-05T08:49:39;1.15;;;0.80;;
11986;SDS011;6053;51.382;6.768;2022-07-05T08:52:10;0.60;;;0.40;;
11986;SDS011;6053;51.382;6.768;2022-07-05T08:54:39;0.90;;;0.50;;
11986;SDS011;6053;51.382;6.768;2022-07-05T08:57:08;0.45;;;0.43;;
11986;SDS011;6053;51.382;6.768;2022-07-05T08:59:39;0.60;;;0.50;;
11986;SDS011;6053;51.382;6.768;2022-07-05T09:02:09;0.75;;;0.70;;
11986;SDS011;6053;51.382;6.768;2022-07-05T09:04:42;1.85;;;0.55;;
11986;SDS011;6053;51.382;6.768;2022-07-05T09:07:16;0.43;;;0.40;;
11986;SDS011;6053;51.382;6.768;2022-07-05T09:09:48;1.05;;;0.50;;
11986;SDS011;6053;51.382;6.768;2022-07-05T09:12:18;0.70;;;0.45;;
11986;SDS011;6053;51.382;6.768;2022-07-05T09:14:50;0.50;;;0.50;;
11986;SDS011;6053;51.382;6.768;2022-07-05T09:17:19;1.02;;;0.50;;
11986;SDS011;6053;51.382;6.768;2022-07-05T09:22:48;0.30;;;0.30;;
11986;SDS011;6053;51.382;6.768;2022-07-05T09:25:20;0.63;;;0.63;;
11986;SDS011;6053;51.382;6.768;2022-07-05T09:27:51;0.95;;;0.40;;
11986;SDS011;6053;51.382;6.768;2022-07-05T09:30:23;0.95;;;0.40;;
11986;SDS011;6053;51.382;6.768;2022-07-05T09:33:00;1.00;;;0.50;;
11986;SDS011;6053;51.382;6.768;2022-07-05T09:35:34;1.40;;;0.60;;
11986;SDS011;6053;51.382;6.768;2022-07-05T09:38:15;1.80;;;0.30;;
11986;SDS011;6053;51.382;6.768;2022-07-05T09:40:46;0.40;;;0.40;;
11986;SDS011;6053;51.382;6.768;2022-07-05T09:43:16;1.80;;;0.30;;
11986;SDS011;6053;51.382;6.768;2022-07-05T09:45:52;1.05;;;0.60;;
11986;SDS011;6053;51.382;6.768;2022-07-05T09:48:23;0.47;;;0.40;;
11986;SDS011;6053;51.382;6.768;2022-07-05T09:51:07;1.40;;;0.55;;
11986;SDS011;6053;51.382;6.768;2022-07-05T09:53:58;2.72;;;0.60;;
11986;SDS011;6053;51.382;6.768;2022-07-05T09:56:42;0.43;;;0.40;;
11986;SDS011;6053;51.382;6.768;2022-07-05T09:59:13;0.52;;;0.30;;
11986;SDS011;6053;51.382;6.768;2022-07-05T10:01:47;0.55;;;0.50;;
11986;SDS011;6053;51.382;6.768;2022-07-05T10:04:16;1.95;;;0.38;;
11986;SDS011;6053;51.382;6.768;2022-07-05T10:06:45;2.00;;;0.70;;
11986;SDS011;6053;51.382;6.768;2022-07-05T10:09:16;0.50;;;0.40;;
11986;SDS011;6053;51.382;6.768;2022-07-05T10:11:46;0.45;;;0.35;;
11986;SDS011;6053;51.382;6.768;2022-07-05T10:14:15;0.50;;;0.50;;
11986;SDS011;6053;51.382;6.768;2022-07-05T10:16:57;0.40;;;0.40;;
11986;SDS011;6053;51.382;6.768;2022-07-05T10:19:32;1.23;;;0.40;;
11986;SDS011;6053;51.382;6.768;2022-07-05T10:22:05;0.30;;;0.30;;
11986;SDS011;6053;51.382;6.768;2022-07-05T10:24:46;0.82;;;0.47;;
11986;SDS011;6053;51.382;6.768;2022-07-05T10:27:15;1.00;;;0.60;;
11986;SDS011;6053;51.382;6.768;2022-07-05T10:29:46;0.50;;;0.50;;
11986;SDS011;6053;51.382;6.768;2022-07-05T10:32:17;0.47;;;0.47;;
11986;SDS011;6053;51.382;6.768;2022-07-05T10:34:46;0.50;;;0.33;;
11986;SDS011;6053;51.382;6.768;2022-07-05T10:37:30;0.68;;;0.50;;
11986;SDS011;6053;51.382;6.768;2022-07-05T10:40:02;0.40;;;0.35;;
11986;SDS011;6053;51.382;6.768;2022-07-05T10:42:34;0.95;;;0.30;;
11986;SDS011;6053;51.382;6.768;2022-07-05T10:45:24;0.28;;;0.28;;
11986;SDS011;6053;51.382;6.768;2022-07-05T10:48:17;1.10;;;0.50;;
11986;SDS011;6053;51.382;6.768;2022-07-05T10:50:48;0.60;;;0.50;;
11986;SDS011;6053;51.382;6.768;2022-07-05T10:53:19;0.70;;;0.52;;
11986;SDS011;6053;51.382;6.768;2022-07-05T10:55:55;1.05;;;0.47;;
11986;SDS011;6053;51.382;6.768;2022-07-05T10:58:29;1.35;;;0.50;;
11986;SDS011;6053;51.382;6.768;2022-07-05T11:04:10;0.30;;;0.30;;
11986;SDS011;6053;51.382;6.768;2022-07-05T11:07:02;1.85;;;0.50;;
11986;SDS011;6053;51.382;6.768;2022-07-05T11:09:31;0.40;;;0.30;;
11986;SDS011;6053;51.382;6.768;2022-07-05T11:12:05;0.30;;;0.30;;
11986;SDS011;6053;51.382;6.768;2022-07-05T11:14:54;0.80;;;0.30;;
11986;SDS011;6053;51.382;6.768;2022-07-05T11:17:33;0.40;;;0.40;;
11986;SDS011;6053;51.382;6.768;2022-07-05T11:20:26;0.88;;;0.32;;
11986;SDS011;6053;51.382;6.768;2022-07-05T11:23:03;1.80;;;0.43;;
11986;SDS011;6053;51.382;6.768;2022-07-05T11:25:36;1.00;;;0.47;;
11986;SDS011;6053;51.382;6.768;2022-07-05T11:28:11;0.50;;;0.45;;
11986;SDS011;6053;51.382;6.768;2022-07-05T11:30:54;0.47;;;0.47;;
11986;SDS011;6053;51.382;6.768;2022-07-05T11:33:32;0.98;;;0.50;;
11986;SDS011;6053;51.382;6.768;2022-07-05T11:36:02;0.65;;;0.63;;
11986;SDS011;6053;51.382;6.768;2022-07-05T11:38:33;0.70;;;0.30;;
11986;SDS011;6053;51.382;6.768;2022-07-05T11:41:38;0.50;;;0.50;;
11986;SDS011;6053;51.382;6.768;2022-07-05T11:44:08;1.13;;;0.45;;
11986;SDS011;6053;51.382;6.768;2022-07-05T11:46:37;0.90;;;0.40;;
11986;SDS011;6053;51.382;6.768;2022-07-05T11:49:18;0.65;;;0.40;;
11986;SDS011;6053;51.382;6.768;2022-07-05T11:51:55;1.10;;;0.60;;
11986;SDS011;6053;51.382;6.768;2022-07-05T11:54:27;0.20;;;0.20;;
11986;SDS011;6053;51.382;6.768;2022-07-05T11:56:58;1.80;;;0.40;;
11986;SDS011;6053;51.382;6.768;2022-07-05T11:59:29;1.10;;;0.40;;
11986;SDS011;6053;51.382;6.768;2022-07-05T12:01:57;0.50;;;0.50;;
11986;SDS011;6053;51.382;6.768;2022-07-05T12:04:26;0.43;;;0.40;;
11986;SDS011;6053;51.382;6.768;2022-07-05T12:06:56;0.57;;;0.50;;
11986;SDS011;6053;51.382;6.768;2022-07-05T12:09:25;1.67;;;0.50;;
11986;SDS011;6053;51.382;6.768;2022-07-05T12:12:17;0.30;;;0.30;;
11986;SDS011;6053;51.382;6.768;2022-07-05T12:15:05;1.70;;;0.30;;
11986;SDS011;6053;51.382;6.768;2022-07-05T12:17:35;2.15;;;0.50;;
11986;SDS011;6053;51.382;6.768;2022-07-05T12:20:06;0.50;;;0.50;;
11986;SDS011;6053;51.382;6.768;2022-07-05T12:22:38;0.60;;;0.40;;
11986;SDS011;6053;51.382;6.768;2022-07-05T12:25:10;0.20;;;0.20;;
11986;SDS011;6053;51.382;6.768;2022-07-05T12:27:42;0.30;;;0.30;;
11986;SDS011;6053;51.382;6.768;2022-07-05T12:30:14;0.60;;;0.40;;
11986;SDS011;6053;51.382;6.768;2022-07-05T12:32:54;1.42;;;0.55;;
11986;SDS011;6053;51.382;6.768;2022-07-05T12:35:31;1.85;;;0.60;;
11986;SDS011;6053;51.382;6.768;2022-07-05T12:38:05;0.40;;;0.32;;
11986;SDS011;6053;51.382;6.768;2022-07-05T12:40:36;1.25;;;0.47;;
11986;SDS011;6053;51.382;6.768;2022-07-05T12:43:06;0.80;;;0.50;;
11986;SDS011;6053;51.382;6.768;2022-07-05T12:45:38;0.43;;;0.43;;
11986;SDS011;6053;51.382;6.768;2022-07-05T12:48:09;1.30;;;0.67;;
11986;SDS011;6053;51.382;6.768;2022-07-05T12:50:46;0.70;;;0.50;;
11986;SDS011;6053;51.382;6.768;2022-07-05T12:53:43;0.60;;;0.55;;
11986;SDS011;6053;51.382;6.768;2022-07-05T12:56:31;1.00;;;0.40;;
11986;SDS011;6053;51.382;6.768;2022-07-05T12:59:37;0.75;;;0.40;;
11986;SDS011;6053;51.382;6.768;2022-07-05T13:02:08;0.73;;;0.35;;
11986;SDS011;6053;51.382;6.768;2022-07-05T13:04:51;0.80;;;0.50;;
11986;SDS011;6053;51.382;6.768;2022-07-05T13:07:24;0.70;;;0.47;;
11986;SDS011;6053;51.382;6.768;2022-07-05T13:10:18;1.80;;;0.65;;
11986;SDS011;6053;51.382;6.768;2022-07-05T13:12:48;0.57;;;0.40;;
11986;SDS011;6053;51.382;6.768;2022-07-05T13:15:17;0.43;;;0.28;;
11986;SDS011;6053;51.382;6.768;2022-07-05T13:17:47;0.82;;;0.38;;
11986;SDS011;6053;51.382;6.768;2022-07-05T13:20:16;0.40;;;0.40;;
11986;SDS011;6053;51.382;6.768;2022-07-05T13:22:47;1.83;;;0.65;;
11986;SDS011;6053;51.382;6.768;2022-07-05T13:25:15;0.47;;;0.40;;
11986;SDS011;6053;51.382;6.768;2022-07-05T13:27:44;0.80;;;0.45;;
11986;SDS011;6053;51.382;6.768;2022-07-05T13:30:12;0.90;;;0.35;;
11986;SDS011;6053;51.382;6.768;2022-07-05T13:32:41;3.22;;;0.75;;
11986;SDS011;6053;51.382;6.768;2022-07-05T13:35:10;1.20;;;0.50;;
11986;SDS011;6053;51.382;6.768;2022-07-05T13:37:39;1.65;;;0.50;;
11986;SDS011;6053;51.382;6.768;2022-07-05T13:40:07;1.02;;;0.63;;
11986;SDS011;6053;51.382;6.768;2022-07-05T13:42:38;2.50;;;0.60;;
11986;SDS011;6053;51.382;6.768;2022-07-05T13:45:06;0.65;;;0.50;;
11986;SDS011;6053;51.382;6.768;2022-07-05T13:47:36;0.90;;;0.50;;
11986;SDS011;6053;51.382;6.768;2022-07-05T13:50:04;2.65;;;0.60;;
11986;SDS011;6053;51.382;6.768;2022-07-05T13:52:52;0.77;;;0.40;;
11986;SDS011;6053;51.382;6.768;2022-07-05T13:55:20;1.95;;;0.77;;
11986;SDS011;6053;51.382;6.768;2022-07-05T13:57:48;0.80;;;0.40;;
11986;SDS011;6053;51.382;6.768;2022-07-05T14:00:17;0.47;;;0.47;;
11986;SDS011;6053;51.382;6.768;2022-07-05T14:02:45;1.02;;;0.50;;
11986;SDS011;6053;51.382;6.768;2022-07-05T14:05:14;0.73;;;0.40;;
11986;SDS011;6053;51.382;6.768;2022-07-05T14:07:44;1.52;;;0.60;;
11986;SDS011;6053;51.382;6.768;2022-07-05T14:10:13;1.00;;;0.60;;
11986;SDS011;6053;51.382;6.768;2022-07-05T14:12:42;0.52;;;0.50;;
11986;SDS011;6053;51.382;6.768;2022-07-05T14:15:10;0.90;;;0.50;;
11986;SDS011;6053;51.382;6.768;2022-07-05T14:17:38;0.40;;;0.40;;
11986;SDS011;6053;51.382;6.768;2022-07-05T14:20:07;0.90;;;0.63;;
11986;SDS011;6053;51.382;6.768;2022-07-05T14:22:37;1.20;;;0.50;;
11986;SDS011;6053;51.382;6.768;2022-07-05T14:25:05;1.20;;;0.50;;
11986;SDS011;6053;51.382;6.768;2022-07-05T14:27:35;1.60;;;0.60;;
11986;SDS011;6053;51.382;6.768;2022-07-05T14:30:05;0.30;;;0.30;;
11986;SDS011;6053;51.382;6.768;2022-07-05T14:32:36;1.42;;;0.43;;
11986;SDS011;6053;51.382;6.768;2022-07-05T14:35:13;0.65;;;0.50;;
11986;SDS011;6053;51.382;6.768;2022-07-05T14:37:41;1.20;;;0.60;;
11986;SDS011;6053;51.382;6.768;2022-07-05T14:40:10;1.05;;;0.55;;
11986;SDS011;6053;51.382;6.768;2022-07-05T14:42:40;0.45;;;0.45;;
11986;SDS011;6053;51.382;6.768;2022-07-05T14:45:08;0.60;;;0.50;;
11986;SDS011;6053;51.382;6.768;2022-07-05T14:47:37;0.40;;;0.40;;
11986;SDS011;6053;51.382;6.768;2022-07-05T14:50:06;1.15;;;0.70;;
11986;SDS011;6053;51.382;6.768;2022-07-05T14:52:34;1.33;;;0.60;;
11986;SDS011;6053;51.382;6.768;2022-07-05T14:55:03;0.57;;;0.52;;
11986;SDS011;6053;51.382;6.768;2022-07-05T14:57:32;1.40;;;0.77;;
11986;SDS011;6053;51.382;6.768;2022-07-05T15:00:02;0.57;;;0.45;;
11986;SDS011;6053;51.382;6.768;2022-07-05T15:02:32;0.80;;;0.50;;
11986;SDS011;6053;51.382;6.768;2022-07-05T15:05:00;1.20;;;0.47;;
11986;SDS011;6053;51.382;6.768;2022-07-05T15:07:29;1.05;;;0.50;;
11986;SDS011;6053;51.382;6.768;2022-07-05T15:09:57;1.33;;;0.70;;
11986;SDS011;6053;51.382;6.768;2022-07-05T15:12:26;1.37;;;0.57;;
11986;SDS011;6053;51.382;6.768;2022-07-05T15:14:54;0.70;;;0.30;;
11986;SDS011;6053;51.382;6.768;2022-07-05T15:17:26;0.93;;;0.73;;
11986;SDS011;6053;51.382;6.768;2022-07-05T15:19:54;0.20;;;0.10;;
11986;SDS011;6053;51.382;6.768;2022-07-05T15:22:23;0.43;;;0.40;;
11986;SDS011;6053;51.382;6.768;2022-07-05T15:24:52;1.02;;;0.52;;
11986;SDS011;6053;51.382;6.768;2022-07-05T15:27:21;1.30;;;0.80;;
11986;SDS011;6053;51.382;6.768;2022-07-05T15:29:49;1.50;;;0.60;;
11986;SDS011;6053;51.382;6.768;2022-07-05T15:32:17;1.30;;;0.80;;